Time;durP1;ratioP1;P1;durP2;ratioP2;P2;SDS_P1;SDS_P2;PMS_P1;PMS_P2;Temp;Humidity;BMP_temperature;BMP_pressure;BME280_temperature;BME280_humidity;BME280_pressure;Samples;Min_cycle;Max_cycle;Signal;HPM_P1;HPM_P2
2022/04/25 00:02:00;;;;;;;9.07;4.83;;;7.70;99.90;;;;;;10610560;28;20190;-80
2022/04/25 00:07:21;;;;;;;9.33;4.87;;;7.60;99.90;;;;;;10609885;28;20205;-79
2022/04/25 00:12:42;;;;;;;10.80;4.40;;;7.60;99.90;;;;;;10588396;28;20251;-80
2022/04/25 00:18:04;;;;;;;13.67;5.07;;;7.60;99.90;;;;;;10578363;28;20206;-80
2022/04/25 00:23:25;;;;;;;8.90;4.20;;;7.40;99.90;;;;;;10586586;28;20205;-79
2022/04/25 00:28:46;;;;;;;10.70;4.80;;;7.40;99.90;;;;;;10593474;28;20230;-77
2022/04/25 00:34:07;;;;;;;10.07;4.90;;;7.30;99.90;;;;;;10607859;28;20225;-77
2022/04/25 00:39:29;;;;;;;10.33;4.03;;;7.40;99.90;;;;;;10607637;28;20200;-77
2022/04/25 00:44:50;;;;;;;8.93;4.17;;;7.40;99.90;;;;;;10607588;28;20516;-79
2022/04/25 00:50:13;;;;;;;9.67;5.33;;;7.30;99.90;;;;;;10607660;28;20213;-77
2022/04/25 00:55:38;;;;;;;11.57;4.40;;;7.40;99.90;;;;;;10607123;28;20191;-77
2022/04/25 01:00:59;;;;;;;9.90;4.50;;;7.30;99.90;;;;;;10607662;28;20200;-79
2022/04/25 01:06:21;;;;;;;11.63;4.47;;;7.50;99.90;;;;;;10606766;28;20363;-79
2022/04/25 01:11:42;;;;;;;11.27;5.00;;;7.40;99.90;;;;;;10607202;28;20613;-78
2022/04/25 01:17:07;;;;;;;8.57;4.17;;;7.30;99.90;;;;;;10599083;28;20189;-78
2022/04/25 01:22:35;;;;;;;10.50;4.67;;;7.30;99.90;;;;;;10579709;28;20271;-78
2022/04/25 01:27:57;;;;;;;8.93;4.80;;;7.40;99.90;;;;;;10591769;28;20195;-79
2022/04/25 01:33:18;;;;;;;9.07;4.20;;;7.30;99.90;;;;;;10591418;28;20536;-78
2022/04/25 01:38:39;;;;;;;11.47;4.33;;;7.30;99.90;;;;;;10610351;27;20220;-78
2022/04/25 01:44:00;;;;;;;10.40;4.43;;;7.40;99.90;;;;;;10633843;27;20271;-79
2022/04/25 01:49:22;;;;;;;9.47;4.70;;;7.30;99.90;;;;;;10648886;27;20187;-78
2022/04/25 01:54:43;;;;;;;13.47;5.23;;;7.30;99.90;;;;;;10562512;28;20208;-78
2022/04/25 02:00:05;;;;;;;8.47;4.13;;;7.20;99.90;;;;;;10564911;28;20420;-79
2022/04/25 02:05:26;;;;;;;8.37;3.80;;;7.20;99.90;;;;;;10563030;28;20378;-78
2022/04/25 02:11:19;;;;;;;8.77;4.20;;;7.30;99.90;;;;;;10606266;27;20234;-78
2022/04/25 02:16:28;;;;;;;10.33;4.80;;;7.30;99.90;;;;;;10601148;28;20576;-79
2022/04/25 02:21:49;;;;;;;11.23;5.03;;;7.40;99.90;;;;;;10596142;28;20195;-78
2022/04/25 02:27:11;;;;;;;10.50;5.17;;;7.30;99.90;;;;;;10561187;28;20420;-78
2022/04/25 02:32:33;;;;;;;9.57;4.80;;;7.30;99.90;;;;;;10561290;28;20230;-78
2022/04/25 02:37:54;;;;;;;9.17;4.77;;;7.30;99.90;;;;;;10560881;28;20188;-79
2022/04/25 02:43:15;;;;;;;10.27;4.03;;;7.30;99.90;;;;;;10562013;28;20286;-79
2022/04/25 02:48:37;;;;;;;11.83;4.47;;;7.30;99.90;;;;;;10560762;28;20373;-79
2022/04/25 02:53:58;;;;;;;12.67;4.77;;;7.40;99.90;;;;;;10596271;28;20223;-78
2022/04/25 02:59:20;;;;;;;11.93;4.43;;;7.30;99.90;;;;;;10588292;28;20198;-79
2022/04/25 03:04:42;;;;;;;11.33;4.47;;;7.40;99.90;;;;;;10602473;28;20195;-78
2022/04/25 03:10:04;;;;;;;21.50;5.17;;;7.50;99.90;;;;;;10573318;28;20280;-78
2022/04/25 03:15:26;;;;;;;7.63;4.67;;;7.50;99.90;;;;;;10587746;28;20212;-78
2022/04/25 03:20:49;;;;;;;11.20;5.30;;;7.50;99.90;;;;;;10581673;28;20193;-78
2022/04/25 03:26:10;;;;;;;13.73;5.30;;;7.40;99.90;;;;;;10606985;28;20502;-79
2022/04/25 03:31:32;;;;;;;10.57;4.40;;;7.40;99.90;;;;;;10611767;28;20550;-79
2022/04/25 03:36:56;;;;;;;9.63;4.70;;;7.30;99.90;;;;;;10610607;28;20237;-78
2022/04/25 03:42:17;;;;;;;8.03;4.63;;;7.40;99.90;;;;;;10610158;28;20366;-78
2022/04/25 03:47:39;;;;;;;11.47;4.67;;;7.30;99.90;;;;;;10610154;28;20217;-78
2022/04/25 03:53:11;;;;;;;7.67;4.53;;;7.30;99.90;;;;;;10611018;28;20239;-78
2022/04/25 03:58:32;;;;;;;8.90;4.90;;;7.20;99.90;;;;;;10612463;28;20260;-79
2022/04/25 04:03:54;;;;;;;7.53;4.43;;;7.20;99.90;;;;;;10626341;27;20180;-79
2022/04/25 04:14:59;;;;;;;14.67;4.50;;;7.10;99.90;;;;;;10623434;27;20193;-79
2022/04/25 04:20:20;;;;;;;8.00;4.63;;;7.20;99.90;;;;;;10575620;28;20475;-77
2022/04/25 04:25:42;;;;;;;8.90;4.30;;;7.30;99.90;;;;;;10609665;28;20196;-79
2022/04/25 04:31:03;;;;;;;8.13;4.23;;;7.40;99.90;;;;;;10608022;28;20291;-78
2022/04/25 04:36:26;;;;;;;10.87;4.80;;;7.40;99.90;;;;;;10608467;28;20200;-79
2022/04/25 04:41:47;;;;;;;12.70;5.00;;;7.60;99.90;;;;;;10593447;28;20209;-78
2022/04/25 04:47:09;;;;;;;9.80;5.40;;;7.60;99.90;;;;;;10607344;28;20195;-79
2022/04/25 04:52:30;;;;;;;11.30;4.67;;;7.50;99.90;;;;;;10608093;28;20229;-78
2022/04/25 04:57:52;;;;;;;9.03;5.10;;;7.60;99.90;;;;;;10592821;28;20548;-78
2022/04/25 05:03:15;;;;;;;11.10;5.30;;;7.60;99.90;;;;;;10621340;27;20192;-79
2022/04/25 05:08:37;;;;;;;9.83;5.13;;;7.70;99.90;;;;;;10594313;27;20244;-78
2022/04/25 05:13:59;;;;;;;8.93;5.07;;;7.70;99.90;;;;;;10615622;27;20221;-78
2022/04/25 05:19:20;;;;;;;11.47;6.03;;;7.70;99.90;;;;;;10565517;28;20191;-80
2022/04/25 05:24:42;;;;;;;16.30;7.17;;;7.70;99.90;;;;;;10578451;27;20211;-79
2022/04/25 05:30:03;;;;;;;15.20;7.80;;;7.80;99.90;;;;;;10580161;28;20195;-79
2022/04/25 05:35:27;;;;;;;14.37;6.87;;;7.80;99.90;;;;;;10564608;28;20190;-79
2022/04/25 05:40:50;;;;;;;19.13;6.97;;;7.90;99.90;;;;;;10563052;28;20209;-78
2022/04/25 05:46:12;;;;;;;13.40;6.37;;;7.90;99.90;;;;;;10563751;28;20192;-78
2022/04/25 05:57:13;;;;;;;18.63;7.67;;;7.80;99.90;;;;;;10605643;28;20212;-79
2022/04/25 06:02:38;;;;;;;16.97;7.27;;;7.90;99.90;;;;;;10605617;28;20419;-78
2022/04/25 06:07:59;;;;;;;30.33;9.30;;;8.00;99.90;;;;;;10603902;28;20237;-78
2022/04/25 06:13:20;;;;;;;26.90;8.67;;;8.10;99.90;;;;;;10589480;28;20215;-78
2022/04/25 06:18:41;;;;;;;22.53;9.13;;;8.20;99.90;;;;;;10578331;28;20199;-78
2022/04/25 06:24:04;;;;;;;17.73;9.50;;;8.30;99.90;;;;;;10615702;27;20374;-78
2022/04/25 06:29:25;;;;;;;19.67;7.90;;;8.30;99.90;;;;;;10603455;28;20194;-78
2022/04/25 06:34:47;;;;;;;29.97;8.80;;;8.40;99.90;;;;;;10588811;28;20229;-79
2022/04/25 06:40:09;;;;;;;14.70;6.70;;;8.40;99.90;;;;;;10603021;28;20203;-78
2022/04/25 06:45:30;;;;;;;17.70;7.93;;;8.50;99.90;;;;;;10603979;28;20191;-78
2022/04/25 06:50:55;;;;;;;18.57;8.73;;;8.40;99.90;;;;;;10602504;28;20441;-78
2022/04/25 06:56:17;;;;;;;19.47;8.50;;;8.40;99.90;;;;;;10602546;28;20228;-78
2022/04/25 07:01:42;;;;;;;12.70;8.60;;;8.30;99.90;;;;;;10573506;28;20208;-79
2022/04/25 07:07:04;;;;;;;17.77;7.57;;;8.30;99.90;;;;;;10601328;28;20186;-80
2022/04/25 07:12:27;;;;;;;16.67;8.13;;;8.40;99.90;;;;;;10600086;28;20232;-78
2022/04/25 07:17:55;;;;;;;11.93;6.73;;;8.40;99.90;;;;;;10589182;28;20189;-78
2022/04/25 07:28:58;;;;;;;10.00;6.20;;;8.40;99.90;;;;;;10511256;28;20215;-80
2022/04/25 07:34:21;;;;;;;13.33;7.10;;;8.50;99.90;;;;;;10470899;28;20259;-78
2022/04/25 07:39:43;;;;;;;15.73;6.83;;;8.50;99.90;;;;;;10485956;28;20239;-80
2022/04/25 07:45:06;;;;;;;8.70;5.33;;;8.60;99.90;;;;;;10512277;28;20197;-76
2022/04/25 07:50:28;;;;;;;11.67;6.73;;;8.60;99.90;;;;;;10513262;28;20370;-77
2022/04/25 07:55:49;;;;;;;14.03;5.73;;;8.50;99.90;;;;;;10512679;28;20206;-77
2022/04/25 08:01:10;;;;;;;11.87;6.93;;;8.60;99.90;;;;;;10513489;28;20217;-79
2022/04/25 08:06:32;;;;;;;18.87;6.43;;;8.70;99.90;;;;;;10513234;28;20250;-82
2022/04/25 08:17:56;;;;;;;12.17;6.00;;;8.70;99.90;;;;;;10498691;28;20278;-79
2022/04/25 08:23:15;;;;;;;30.60;13.97;;;8.90;99.90;;;;;;10479059;28;20230;-77
2022/04/25 08:28:36;;;;;;;23.20;9.70;;;8.90;99.90;;;;;;10540237;28;20430;-78
2022/04/25 08:34:16;;;;;;;26.90;17.20;;;8.90;99.90;;;;;;10543070;28;20243;-80
2022/04/25 08:39:38;;;;;;;32.60;18.27;;;9.00;99.90;;;;;;10533417;28;20201;-80
2022/04/25 08:45:00;;;;;;;38.80;24.97;;;9.00;99.90;;;;;;10523685;28;20196;-79
2022/04/25 08:50:22;;;;;;;38.43;24.00;;;9.00;99.90;;;;;;10528091;28;20242;-78
2022/04/25 08:55:44;;;;;;;34.10;18.13;;;8.90;99.90;;;;;;10519511;28;20228;-79
2022/04/25 09:01:09;;;;;;;20.87;14.10;;;8.90;99.90;;;;;;10518115;28;20199;-81
2022/04/25 09:06:31;;;;;;;19.03;11.80;;;8.90;99.90;;;;;;10518196;28;20197;-79
2022/04/25 09:28:07;;;;;;;8.93;5.67;;;8.80;99.90;;;;;;10639488;27;20559;-80
2022/04/25 09:33:28;;;;;;;10.30;6.47;;;8.60;99.90;;;;;;10560903;28;20215;-80
2022/04/25 09:38:50;;;;;;;15.00;7.93;;;8.60;99.90;;;;;;10576272;28;20378;-79
2022/04/25 09:44:12;;;;;;;16.03;9.10;;;8.70;99.90;;;;;;10591096;28;20309;-79
2022/04/25 09:49:33;;;;;;;14.50;8.50;;;8.60;99.90;;;;;;10575769;28;20439;-81
2022/04/25 09:54:57;;;;;;;14.77;8.70;;;8.60;99.90;;;;;;10591730;28;20417;-80
2022/04/25 10:00:28;;;;;;;22.10;11.37;;;8.60;99.90;;;;;;10590746;28;20193;-78
2022/04/25 10:05:52;;;;;;;18.00;9.20;;;8.50;99.90;;;;;;10576108;28;20225;-78
2022/04/25 10:11:14;;;;;;;16.57;10.13;;;8.50;99.90;;;;;;10582067;28;20207;-81
2022/04/25 10:16:36;;;;;;;21.83;11.30;;;8.50;99.90;;;;;;10608807;28;20203;-81
2022/04/25 10:21:58;;;;;;;16.37;8.10;;;8.50;99.90;;;;;;10591250;28;20275;-81
2022/04/25 10:27:27;;;;;;;14.40;8.73;;;8.40;99.90;;;;;;10594116;28;20429;-80
2022/04/25 10:32:48;;;;;;;12.30;8.40;;;8.40;99.90;;;;;;10543724;28;20487;-80
2022/04/25 10:38:49;;;;;;;18.40;10.57;;;8.40;99.90;;;;;;10565081;28;20280;-81
2022/04/25 10:44:18;;;;;;;16.50;9.07;;;8.40;99.90;;;;;;10562077;28;20224;-84
2022/04/25 10:50:03;;;;;;;12.43;7.47;;;8.40;99.90;;;;;;10547618;28;20196;-85
2022/04/25 10:55:33;;;;;;;13.27;7.83;;;8.40;99.90;;;;;;10532412;28;20223;-81
2022/04/25 11:00:55;;;;;;;10.83;7.00;;;8.50;99.90;;;;;;10561029;28;20188;-80
2022/04/25 11:06:24;;;;;;;13.03;8.10;;;8.60;99.90;;;;;;10562401;28;20222;-77
2022/04/25 11:11:53;;;;;;;15.23;8.33;;;8.70;99.90;;;;;;10584132;28;20463;-80
2022/04/25 11:17:15;;;;;;;20.17;12.70;;;8.70;99.90;;;;;;10573575;28;20214;-80
2022/04/25 11:22:48;;;;;;;15.87;10.93;;;8.70;99.90;;;;;;10560722;28;20190;-85
2022/04/25 11:28:11;;;;;;;15.07;9.80;;;8.70;99.90;;;;;;10545609;28;20199;-81
2022/04/25 11:33:43;;;;;;;20.07;9.80;;;8.80;99.90;;;;;;10560060;28;20521;-88
2022/04/25 11:44:45;;;;;;;18.27;12.60;;;8.60;99.90;;;;;;10560138;28;20215;-80
2022/04/25 11:50:11;;;;;;;22.83;13.03;;;8.50;99.90;;;;;;10557328;28;20245;-81
2022/04/25 11:55:36;;;;;;;34.60;18.63;;;8.50;99.90;;;;;;10557807;28;20273;-81
2022/04/25 12:00:58;;;;;;;27.93;15.30;;;8.50;99.90;;;;;;10558394;28;20195;-86
2022/04/25 12:06:20;;;;;;;23.20;12.10;;;8.70;99.90;;;;;;10558007;28;20601;-79
2022/04/25 12:17:21;;;;;;;19.77;12.30;;;8.70;99.90;;;;;;10567212;28;20204;-78
2022/04/25 12:22:57;;;;;;;16.63;11.03;;;8.70;99.90;;;;;;10542985;28;20195;-84
2022/04/25 12:28:22;;;;;;;21.13;11.33;;;8.70;99.90;;;;;;10558329;28;20228;-87
2022/04/25 12:33:46;;;;;;;19.73;11.70;;;8.60;99.90;;;;;;10557765;28;20489;-82
2022/04/25 12:39:15;;;;;;;21.07;14.07;;;8.60;99.90;;;;;;10558129;28;20195;-91
2022/04/25 12:44:36;;;;;;;19.63;11.97;;;8.60;99.90;;;;;;10559128;28;20266;-87
2022/04/25 12:50:01;;;;;;;28.13;16.40;;;8.60;99.90;;;;;;10560661;28;20218;-81
2022/04/25 12:55:45;;;;;;;21.67;13.67;;;8.70;99.90;;;;;;10544853;28;20203;-82
2022/04/25 13:01:07;;;;;;;27.40;15.10;;;8.50;99.90;;;;;;10559279;28;20188;-87
2022/04/25 13:06:32;;;;;;;21.80;13.80;;;8.60;99.90;;;;;;10554577;28;20226;-84
2022/04/25 13:11:53;;;;;;;17.73;11.00;;;8.60;99.90;;;;;;10531837;28;20206;-85
2022/04/25 13:17:15;;;;;;;24.23;14.33;;;8.60;99.90;;;;;;10557306;28;20200;-80
2022/04/25 13:22:37;;;;;;;26.20;14.67;;;8.60;99.90;;;;;;10556134;28;20208;-83
2022/04/25 13:27:58;;;;;;;24.37;14.47;;;8.40;99.90;;;;;;10560283;28;20335;-86
2022/04/25 13:33:19;;;;;;;20.30;12.03;;;8.30;99.90;;;;;;10562772;28;20229;-86
2022/04/25 13:38:41;;;;;;;28.33;14.90;;;8.40;99.90;;;;;;10527138;28;20499;-85
2022/04/25 13:44:05;;;;;;;25.93;15.00;;;8.50;99.90;;;;;;10540663;28;20526;-84
2022/04/25 13:49:26;;;;;;;22.70;14.40;;;8.60;99.90;;;;;;10526311;28;20206;-85
2022/04/25 13:54:48;;;;;;;24.67;14.57;;;8.60;99.90;;;;;;10541036;28;20214;-83
2022/04/25 14:00:10;;;;;;;25.10;13.43;;;8.40;99.90;;;;;;10543031;28;20238;-86
2022/04/25 14:05:44;;;;;;;20.80;12.97;;;8.40;99.90;;;;;;10556878;28;20262;-83
2022/04/25 14:11:05;;;;;;;19.47;12.10;;;8.30;99.90;;;;;;10549250;28;20252;-82
2022/04/25 14:16:27;;;;;;;25.53;13.27;;;8.20;99.90;;;;;;10566212;28;20388;-80
2022/04/25 14:21:49;;;;;;;19.13;12.70;;;8.20;99.90;;;;;;10557989;28;20193;-85
2022/04/25 14:27:10;;;;;;;34.43;20.97;;;8.20;99.90;;;;;;10583524;28;20242;-83
2022/04/25 14:32:33;;;;;;;22.50;14.73;;;8.20;99.90;;;;;;10566093;28;20370;-83
2022/04/25 14:37:55;;;;;;;24.57;14.30;;;8.20;99.90;;;;;;10592961;28;20237;-83
2022/04/25 14:43:16;;;;;;;15.27;9.53;;;8.20;99.90;;;;;;10570352;28;20223;-81
2022/04/25 14:48:39;;;;;;;17.37;10.90;;;8.20;99.90;;;;;;10586415;28;20203;-81
2022/04/25 14:59:40;;;;;;;19.37;11.67;;;8.10;99.90;;;;;;10581188;28;20588;-79
2022/04/25 15:05:02;;;;;;;21.37;12.03;;;8.10;99.90;;;;;;10600798;28;20244;-82
2022/04/25 15:10:23;;;;;;;19.70;13.93;;;8.10;99.90;;;;;;10544946;28;20222;-80
2022/04/25 15:15:45;;;;;;;20.87;12.03;;;8.10;99.90;;;;;;10537335;28;20203;-80
2022/04/25 15:21:06;;;;;;;17.73;10.90;;;8.10;99.90;;;;;;10496466;28;20279;-80
2022/04/25 15:26:27;;;;;;;15.53;10.20;;;8.20;99.90;;;;;;10479352;28;20241;-80
2022/04/25 15:31:49;;;;;;;16.63;7.90;;;8.20;99.90;;;;;;10480173;28;20200;-79
2022/04/25 15:37:10;;;;;;;11.87;7.43;;;8.10;99.90;;;;;;10504347;28;20229;-79
2022/04/25 15:42:32;;;;;;;11.47;6.27;;;7.90;99.90;;;;;;10504316;28;20204;-80
2022/04/25 15:47:58;;;;;;;11.63;7.97;;;7.80;99.90;;;;;;10504847;28;20240;-80
2022/04/25 15:53:20;;;;;;;13.17;7.60;;;7.80;99.90;;;;;;10506943;28;20218;-80
2022/04/25 15:58:41;;;;;;;14.30;9.20;;;7.80;99.90;;;;;;10521280;28;20188;-80
2022/04/25 16:04:03;;;;;;;18.03;11.97;;;7.70;99.90;;;;;;10506086;28;20217;-80
2022/04/25 16:09:24;;;;;;;11.10;8.43;;;7.70;99.90;;;;;;10511618;28;20200;-80
2022/04/25 16:14:46;;;;;;;18.70;11.63;;;7.60;99.90;;;;;;10523379;28;20208;-80
2022/04/25 16:20:08;;;;;;;20.07;13.90;;;7.60;99.90;;;;;;10480998;28;20199;-79
2022/04/25 16:25:30;;;;;;;27.20;17.63;;;7.60;99.90;;;;;;10478370;28;20238;-80
2022/04/25 16:30:54;;;;;;;24.53;15.23;;;7.60;99.90;;;;;;10464037;28;20199;-80
2022/04/25 16:36:18;;;;;;;23.13;13.63;;;7.70;99.90;;;;;;10502267;28;20457;-79
2022/04/25 16:41:43;;;;;;;15.17;10.43;;;7.70;99.90;;;;;;10491235;28;20488;-79
2022/04/25 16:47:06;;;;;;;23.90;13.70;;;7.70;99.90;;;;;;10505035;28;20229;-79
2022/04/25 16:52:27;;;;;;;19.40;12.13;;;7.70;99.90;;;;;;10518675;28;20218;-79
2022/04/25 16:57:49;;;;;;;21.40;14.33;;;7.60;99.90;;;;;;10490722;28;20387;-79
2022/04/25 17:03:10;;;;;;;16.07;10.73;;;7.50;99.90;;;;;;10488174;28;20359;-79
2022/04/25 17:08:33;;;;;;;16.00;9.80;;;7.40;99.90;;;;;;10518303;28;20239;-79
2022/04/25 17:13:54;;;;;;;19.27;11.33;;;7.30;99.90;;;;;;10545402;28;20205;-79
2022/04/25 17:19:16;;;;;;;18.57;12.03;;;7.30;99.90;;;;;;10493106;28;20506;-79
2022/04/25 17:24:37;;;;;;;17.33;10.60;;;7.30;99.90;;;;;;10479167;28;20688;-79
2022/04/25 17:29:58;;;;;;;13.70;9.47;;;7.30;99.90;;;;;;10479184;28;20229;-79
2022/04/25 17:35:31;;;;;;;15.23;9.70;;;7.30;99.90;;;;;;10494061;28;20189;-79
2022/04/25 17:41:31;;;;;;;17.83;9.73;;;7.20;99.90;;;;;;10489680;28;20203;-79
